Historique des mesures à Cassis (13260), France
Quotidien Résumé Octobre 9, 2017 Unités:  Métrique    US   Métrique/US
« Précédent (Jour)
Suivant (Jour) »
Quotidien Hebdomadaire Mensuel Annuel Période au choix
  Maximum: Minimum: Moyenne:
Température: TemperatureC °C 13.0 °C 16.9 °C
Point de rosée: DewpointC °C 6.6 °C 7.4 °C
Humidité: Humidity % 43 % 51 %
Vitesse du vent: 0 km/h 0 km/h 8.2 km/h
Rafales: 0 km/h - -
Vent:- - SSW
Pression: PressurehPa hPa 1012.8 hPa -
Précipitations: 0.0 mm    
Historical Graphs
 
 
Mesures pour : Octobre 9, 2017
Heure Temperature Point de rosée Pression Vent Vitesse du vent Rafales Humidité Pluie (par heure) Conditions
TemperatureC °C DewpointC °C PressurehPa hPa Calm     Humidity % HourlyPrecipMM mm SoftwareType W/m2
00:11 17.3 °C 7.3 °C 1013.1 hPa NNE 10.3 km/h 23.8 km/h 52 % 0.0 mm open2300-1.11 W/m2
01:11 16.8 °C 7.1 °C 1013.1 hPa WNW 10.9 km/h 10.9 km/h 53 % 0.0 mm open2300-1.11 W/m2
02:11 16.3 °C 6.9 °C 1013.1 hPa NNW 8 km/h 8 km/h 54 % 0.0 mm open2300-1.11 W/m2
03:11 15.6 °C 7.1 °C 1013.1 hPa NE 10.9 km/h 10.9 km/h 57 % 0.0 mm open2300-1.11 W/m2
04:11 15.0 °C 6.8 °C 1012.8 hPa Calm   5.6 km/h 58 % 0.0 mm open2300-1.11 W/m2
06:11 13.9 °C 6.7 °C 1013.1 hPa NNE 2.9 km/h 2.9 km/h 62 % 0.0 mm open2300-1.11 W/m2
07:11 13.5 °C 6.8 °C 1013.1 hPa NNW 9.8 km/h 9.8 km/h 64 % 0.0 mm open2300-1.11 W/m2
08:11 13.0 °C 6.6 °C 1013.8 hPa NNW 11.6 km/h 11.6 km/h 65 % 0.0 mm open2300-1.11 W/m2
09:11 14.5 °C 7.8 °C 1014.1 hPa North 10.3 km/h 10.3 km/h 64 % 0.0 mm open2300-1.11 W/m2
10:11 15.8 °C 8.1 °C 1014.4 hPa NNW 2.3 km/h 9.3 km/h 60 % 0.0 mm open2300-1.11 W/m2
11:11 17.2 °C 8.3 °C 1014.4 hPa North 5.6 km/h 5.6 km/h 56 % 0.0 mm open2300-1.11 W/m2
12:11 18.9 °C 8.8 °C 1014.8 hPa NNW 2.3 km/h 9.3 km/h 52 % 0.0 mm open2300-1.11 W/m2
13:11 20.4 °C 9.3 °C 1014.4 hPa East 9.3 km/h 20.9 km/h 49 % 0.0 mm open2300-1.11 W/m2
14:11 21.6 °C 10.4 °C 1014.1 hPa SW 5.1 km/h 5.1 km/h 49 % 0.0 mm open2300-1.11 W/m2
15:11 21.3 °C 9.5 °C 1014.1 hPa NW 15.6 km/h 16.3 km/h 47 % 0.0 mm open2300-1.11 W/m2
16:11 21.5 °C 9.3 °C 1014.1 hPa NW 8.9 km/h 9.8 km/h 46 % 0.0 mm open2300-1.11 W/m2
17:11 21.6 °C 8.8 °C 1013.8 hPa NNW 9.3 km/h 15.6 km/h 44 % 0.0 mm open2300-1.11 W/m2
18:11 21.3 °C 8.2 °C 1013.8 hPa NNW 9.3 km/h 23 km/h 43 % 0.0 mm open2300-1.11 W/m2
19:11 20.2 °C 7.5 °C 1013.8 hPa NNW 26.7 km/h 33.6 km/h 44 % 0.0 mm open2300-1.11 W/m2
20:11 18.7 °C 6.8 °C 1014.1 hPa Calm   5.6 km/h 46 % 0.0 mm open2300-1.11 W/m2
21:11 17.5 °C 6.6 °C 1013.8 hPa WNW 14 km/h 14 km/h 49 % 0.0 mm open2300-1.11 W/m2
22:11 17.1 °C 6.8 °C 1013.8 hPa NNE 6.4 km/h 15 km/h 51 % 0.0 mm open2300-1.11 W/m2
23:11 16.6 °C 6.7 °C 1013.8 hPa North 8.9 km/h 8.9 km/h 52 % 0.0 mm open2300-1.11 W/m2
Observations météo à CASSIS
WU-History script by Weather Underground - 1 mb